Time;durP1;ratioP1;P1;durP2;ratioP2;P2;SDS_P1;SDS_P2;PMS_P1;PMS_P2;Temp;Humidity;BMP_temperature;BMP_pressure;BME280_temperature;BME280_humidity;BME280_pressure;Samples;Min_cycle;Max_cycle;Signal;HPM_P1;HPM_P2
2022/03/28 00:01:55;;;;;;;22.60;10.37;;;;;;;;;;5092541;28;20486;-70
2022/03/28 00:04:22;;;;;;;14.77;9.87;;;;;;;;;;5092136;28;20801;-70
2022/03/28 00:06:50;;;;;;;15.23;7.90;;;;;;;;;;5092266;28;20471;-70
2022/03/28 00:09:17;;;;;;;11.80;9.23;;;;;;;;;;5095894;28;20806;-70
2022/03/28 00:11:44;;;;;;;21.70;10.10;;;;;;;;;;5096351;28;20498;-70
2022/03/28 00:14:11;;;;;;;15.03;8.47;;;;;;;;;;5095771;28;20454;-70
2022/03/28 00:16:40;;;;;;;12.93;8.37;;;;;;;;;;5096407;28;20928;-70
2022/03/28 00:19:07;;;;;;;17.57;8.57;;;;;;;;;;5094576;28;20506;-70
2022/03/28 00:21:34;;;;;;;13.53;7.80;;;;;;;;;;5096127;28;20460;-70
2022/03/28 00:24:01;;;;;;;20.63;9.77;;;;;;;;;;5095611;28;20457;-70
2022/03/28 00:26:28;;;;;;;18.17;9.67;;;;;;;;;;5096154;28;20450;-71
2022/03/28 00:28:55;;;;;;;13.60;8.20;;;;;;;;;;5095854;28;20474;-71
2022/03/28 00:31:22;;;;;;;15.80;7.93;;;;;;;;;;5096147;28;20453;-70
2022/03/28 00:33:50;;;;;;;15.00;10.10;;;;;;;;;;5095295;28;20459;-70
2022/03/28 00:36:18;;;;;;;13.47;8.57;;;;;;;;;;5096122;28;20959;-70
2022/03/28 00:38:45;;;;;;;12.67;8.47;;;;;;;;;;5095779;28;20486;-70
2022/03/28 00:41:12;;;;;;;20.27;9.57;;;;;;;;;;5093856;28;20453;-70
2022/03/28 00:43:44;;;;;;;13.60;8.03;;;;;;;;;;5095409;28;20850;-70
2022/03/28 00:46:11;;;;;;;19.40;10.17;;;;;;;;;;5095859;28;20954;-70
2022/03/28 00:48:42;;;;;;;23.50;9.47;;;;;;;;;;5095734;28;20493;-70
2022/03/28 00:51:11;;;;;;;15.30;9.10;;;;;;;;;;5095766;28;20861;-70
2022/03/28 00:53:39;;;;;;;16.73;9.33;;;;;;;;;;5095168;28;20986;-70
2022/03/28 00:56:07;;;;;;;19.70;10.37;;;;;;;;;;5095582;28;20486;-70
2022/03/28 00:58:34;;;;;;;24.90;11.00;;;;;;;;;;5095499;28;21024;-70
2022/03/28 01:01:02;;;;;;;16.60;9.30;;;;;;;;;;5095378;28;20501;-70
2022/03/28 01:03:29;;;;;;;17.13;8.43;;;;;;;;;;5094787;28;20512;-70
2022/03/28 01:05:56;;;;;;;16.80;8.50;;;;;;;;;;5095231;28;20487;-70
2022/03/28 01:08:25;;;;;;;13.37;8.10;;;;;;;;;;5095331;28;20470;-70
2022/03/28 01:10:54;;;;;;;15.70;9.67;;;;;;;;;;5095301;28;20453;-70
2022/03/28 01:13:21;;;;;;;13.70;8.70;;;;;;;;;;5095210;28;20458;-70
2022/03/28 01:15:48;;;;;;;16.93;10.87;;;;;;;;;;5094758;28;20454;-70
2022/03/28 01:18:15;;;;;;;18.53;9.43;;;;;;;;;;5094086;28;20501;-71
2022/03/28 01:20:43;;;;;;;16.93;7.87;;;;;;;;;;5094366;28;20453;-70
2022/03/28 01:23:11;;;;;;;16.37;9.33;;;;;;;;;;5095031;28;21087;-70
2022/03/28 01:25:38;;;;;;;16.17;8.67;;;;;;;;;;5094343;28;20447;-70
2022/03/28 01:28:06;;;;;;;14.17;8.87;;;;;;;;;;5094768;28;20481;-71
2022/03/28 01:30:34;;;;;;;17.30;9.13;;;;;;;;;;5095126;28;20822;-70
2022/03/28 01:33:02;;;;;;;27.73;11.00;;;;;;;;;;5094823;28;20459;-70
2022/03/28 01:35:30;;;;;;;18.60;10.53;;;;;;;;;;5094334;28;20490;-70
2022/03/28 01:37:58;;;;;;;20.87;9.60;;;;;;;;;;5094579;28;20482;-70
2022/03/28 01:40:26;;;;;;;17.70;9.40;;;;;;;;;;5093500;28;20454;-70
2022/03/28 01:42:53;;;;;;;18.73;9.30;;;;;;;;;;5094510;28;20517;-70
2022/03/28 01:45:21;;;;;;;14.23;8.70;;;;;;;;;;5093993;28;20454;-70
2022/03/28 01:47:48;;;;;;;13.37;7.83;;;;;;;;;;5094273;28;20952;-70
2022/03/28 01:50:15;;;;;;;25.53;9.60;;;;;;;;;;5094794;28;20455;-70
2022/03/28 01:52:43;;;;;;;14.03;8.90;;;;;;;;;;5094477;28;20843;-70
2022/03/28 01:55:10;;;;;;;18.53;8.73;;;;;;;;;;5094015;28;20455;-70
2022/03/28 01:57:39;;;;;;;15.07;9.23;;;;;;;;;;5094309;28;20463;-70
2022/03/28 02:00:07;;;;;;;16.23;8.90;;;;;;;;;;5094309;28;20458;-70
2022/03/28 02:02:34;;;;;;;18.13;9.37;;;;;;;;;;5094299;28;20924;-70
2022/03/28 02:05:01;;;;;;;13.33;9.57;;;;;;;;;;5093584;28;20451;-70
2022/03/28 02:07:28;;;;;;;16.43;8.37;;;;;;;;;;5094166;28;20447;-70
2022/03/28 02:09:56;;;;;;;15.00;8.80;;;;;;;;;;5094078;28;20442;-70
2022/03/28 02:12:23;;;;;;;18.37;9.10;;;;;;;;;;5094253;28;20924;-70
2022/03/28 02:14:52;;;;;;;15.67;8.87;;;;;;;;;;5093396;28;20473;-71
2022/03/28 02:17:19;;;;;;;14.47;8.13;;;;;;;;;;5093890;28;20451;-70
2022/03/28 02:19:46;;;;;;;15.50;9.70;;;;;;;;;;5092939;28;20486;-70
2022/03/28 02:22:13;;;;;;;12.97;8.43;;;;;;;;;;5093685;28;20462;-70
2022/03/28 02:24:40;;;;;;;16.17;9.07;;;;;;;;;;5093300;28;20932;-70
2022/03/28 02:27:08;;;;;;;20.43;8.67;;;;;;;;;;5093713;28;20550;-70
2022/03/28 02:29:35;;;;;;;14.80;8.47;;;;;;;;;;5093802;28;20490;-70
2022/03/28 02:32:04;;;;;;;13.10;8.20;;;;;;;;;;5092515;28;20971;-70
2022/03/28 02:34:31;;;;;;;12.97;8.80;;;;;;;;;;5093347;28;20631;-70
2022/03/28 02:36:58;;;;;;;17.53;8.60;;;;;;;;;;5093622;28;20458;-70
2022/03/28 02:39:25;;;;;;;14.07;9.40;;;;;;;;;;5093564;28;20494;-70
2022/03/28 02:41:53;;;;;;;14.60;8.53;;;;;;;;;;5090965;28;21017;-70
2022/03/28 02:44:20;;;;;;;19.57;8.90;;;;;;;;;;5092892;28;20454;-70
2022/03/28 02:46:47;;;;;;;12.43;8.60;;;;;;;;;;5093630;28;20458;-70
2022/03/28 02:49:18;;;;;;;14.13;8.90;;;;;;;;;;5093416;28;20470;-71
2022/03/28 02:51:45;;;;;;;14.30;8.30;;;;;;;;;;5093555;28;20450;-70
2022/03/28 02:54:13;;;;;;;17.27;9.80;;;;;;;;;;5092659;28;20504;-70
2022/03/28 02:56:40;;;;;;;17.63;10.50;;;;;;;;;;5093439;28;20447;-70
2022/03/28 02:59:07;;;;;;;16.77;9.07;;;;;;;;;;5093142;28;20487;-70
2022/03/28 03:01:34;;;;;;;12.50;8.57;;;;;;;;;;5093283;28;20458;-70
2022/03/28 03:04:02;;;;;;;21.33;8.43;;;;;;;;;;5092432;28;20450;-71
2022/03/28 03:06:30;;;;;;;12.70;8.50;;;;;;;;;;5093237;28;20450;-70
2022/03/28 03:08:57;;;;;;;15.90;8.97;;;;;;;;;;5093099;28;20475;-70
2022/03/28 03:11:25;;;;;;;18.23;9.77;;;;;;;;;;5093013;28;20460;-70
2022/03/28 03:13:53;;;;;;;19.97;10.10;;;;;;;;;;5092458;28;20557;-70
2022/03/28 03:16:20;;;;;;;16.87;9.17;;;;;;;;;;5092923;28;20459;-70
2022/03/28 03:18:47;;;;;;;14.07;8.13;;;;;;;;;;5092844;28;20493;-70
2022/03/28 03:21:15;;;;;;;16.17;9.63;;;;;;;;;;5092968;28;20877;-70
2022/03/28 03:23:43;;;;;;;16.50;9.13;;;;;;;;;;5092168;28;20493;-71
2022/03/28 03:26:10;;;;;;;16.50;9.60;;;;;;;;;;5093018;28;20450;-70
2022/03/28 03:28:37;;;;;;;21.57;11.40;;;;;;;;;;5092792;28;20550;-70
2022/03/28 03:31:04;;;;;;;21.23;12.20;;;;;;;;;;5092722;28;20450;-70
2022/03/28 03:33:31;;;;;;;14.60;10.23;;;;;;;;;;5092306;28;20519;-70
2022/03/28 03:36:00;;;;;;;17.87;10.40;;;;;;;;;;5092815;28;20459;-70
2022/03/28 03:38:27;;;;;;;21.70;10.00;;;;;;;;;;5092416;28;20478;-70
2022/03/28 03:40:55;;;;;;;12.87;9.23;;;;;;;;;;5090180;28;20467;-70
2022/03/28 03:43:24;;;;;;;20.70;10.97;;;;;;;;;;5092251;28;20447;-70
2022/03/28 03:45:51;;;;;;;19.67;10.63;;;;;;;;;;5092154;28;20460;-70
2022/03/28 03:48:19;;;;;;;28.60;14.37;;;;;;;;;;5092703;28;20828;-70
2022/03/28 03:50:47;;;;;;;19.27;10.60;;;;;;;;;;5092666;28;20547;-70
2022/03/28 03:53:14;;;;;;;25.33;10.50;;;;;;;;;;5092594;28;20447;-70
2022/03/28 03:55:41;;;;;;;12.67;8.77;;;;;;;;;;5092012;28;20809;-70
2022/03/28 03:58:09;;;;;;;19.00;11.47;;;;;;;;;;5092353;28;20474;-70
2022/03/28 04:00:37;;;;;;;19.80;10.07;;;;;;;;;;5092668;28;20486;-71
2022/03/28 04:03:04;;;;;;;30.57;14.33;;;;;;;;;;5092398;28;20827;-70
2022/03/28 04:05:32;;;;;;;16.80;11.30;;;;;;;;;;5091925;28;20865;-70
2022/03/28 04:08:00;;;;;;;18.77;11.40;;;;;;;;;;5092345;28;20527;-70
2022/03/28 04:10:27;;;;;;;20.17;10.67;;;;;;;;;;5092453;28;20450;-70
2022/03/28 04:12:54;;;;;;;17.77;10.20;;;;;;;;;;5092212;28;20875;-70
2022/03/28 04:15:23;;;;;;;29.27;13.67;;;;;;;;;;5091894;28;20641;-70
2022/03/28 04:17:50;;;;;;;18.87;11.40;;;;;;;;;;5092278;28;20493;-70
2022/03/28 04:20:17;;;;;;;23.33;10.47;;;;;;;;;;5092238;28;20490;-70
2022/03/28 04:22:46;;;;;;;18.00;10.47;;;;;;;;;;5092170;28;20959;-70
2022/03/28 04:25:14;;;;;;;23.63;11.83;;;;;;;;;;5091560;28;20944;-70
2022/03/28 04:27:41;;;;;;;17.80;11.17;;;;;;;;;;5092275;28;20502;-70
2022/03/28 04:30:09;;;;;;;21.17;11.33;;;;;;;;;;5092190;28;20479;-70
2022/03/28 04:32:38;;;;;;;22.83;10.47;;;;;;;;;;5092241;28;20806;-70
2022/03/28 04:35:07;;;;;;;28.80;12.30;;;;;;;;;;5091599;28;20508;-70
2022/03/28 04:37:34;;;;;;;52.33;27.83;;;;;;;;;;5092240;28;21018;-70
2022/03/28 04:40:02;;;;;;;19.17;12.00;;;;;;;;;;5092462;28;20490;-70
2022/03/28 04:42:29;;;;;;;21.70;11.40;;;;;;;;;;5089733;28;20446;-71
2022/03/28 04:44:56;;;;;;;18.43;11.03;;;;;;;;;;5091335;28;20962;-70
2022/03/28 04:47:23;;;;;;;21.60;12.03;;;;;;;;;;5092120;28;20462;-70
2022/03/28 04:49:52;;;;;;;20.77;10.93;;;;;;;;;;5092027;28;20454;-70
2022/03/28 04:52:19;;;;;;;25.43;14.00;;;;;;;;;;5091906;28;20458;-71
2022/03/28 04:54:46;;;;;;;19.57;11.80;;;;;;;;;;5092234;28;20931;-71
2022/03/28 04:57:13;;;;;;;19.70;11.80;;;;;;;;;;5095482;28;20812;-70
2022/03/28 04:59:40;;;;;;;24.43;13.17;;;;;;;;;;5095475;28;20490;-70
2022/03/28 05:02:07;;;;;;;16.83;11.37;;;;;;;;;;5095633;28;20457;-70
2022/03/28 05:04:35;;;;;;;25.00;12.13;;;;;;;;;;5095036;28;20450;-70
2022/03/28 05:07:03;;;;;;;29.43;12.60;;;;;;;;;;5095407;28;20541;-70
2022/03/28 05:09:30;;;;;;;17.73;10.73;;;;;;;;;;5095548;28;20478;-70
2022/03/28 05:11:57;;;;;;;24.57;12.10;;;;;;;;;;5095187;28;20839;-70
2022/03/28 05:14:24;;;;;;;26.30;11.70;;;;;;;;;;5094702;28;20874;-70
2022/03/28 05:16:51;;;;;;;29.57;15.40;;;;;;;;;;5095444;28;20454;-70
2022/03/28 05:19:18;;;;;;;31.00;14.43;;;;;;;;;;5095070;28;20857;-70
2022/03/28 05:21:46;;;;;;;25.57;12.30;;;;;;;;;;5095076;28;20466;-70
2022/03/28 05:24:14;;;;;;;31.03;12.83;;;;;;;;;;5094451;28;20457;-70
2022/03/28 05:26:41;;;;;;;25.50;11.93;;;;;;;;;;5095032;28;20455;-70
2022/03/28 05:29:08;;;;;;;24.97;12.80;;;;;;;;;;5094859;28;20466;-70
2022/03/28 05:31:35;;;;;;;22.67;13.77;;;;;;;;;;5094950;28;20451;-70
2022/03/28 05:34:02;;;;;;;21.60;12.77;;;;;;;;;;5094169;28;20451;-70
2022/03/28 05:36:29;;;;;;;19.33;11.10;;;;;;;;;;5094909;28;20450;-70
2022/03/28 05:38:57;;;;;;;20.43;11.53;;;;;;;;;;5094585;28;20830;-70
2022/03/28 05:41:25;;;;;;;21.03;12.83;;;;;;;;;;5092150;28;20453;-70
2022/03/28 05:43:53;;;;;;;35.27;17.33;;;;;;;;;;5094140;28;20443;-70
2022/03/28 05:46:20;;;;;;;25.97;14.20;;;;;;;;;;5094722;28;20435;-70
2022/03/28 05:48:47;;;;;;;19.97;13.17;;;;;;;;;;5094584;28;20971;-70
2022/03/28 05:51:14;;;;;;;25.03;12.67;;;;;;;;;;5094490;28;20448;-70
2022/03/28 05:53:41;;;;;;;20.90;13.80;;;;;;;;;;5093974;28;20446;-72
2022/03/28 05:56:08;;;;;;;22.47;11.50;;;;;;;;;;5094467;28;20458;-70
2022/03/28 05:58:37;;;;;;;22.77;13.50;;;;;;;;;;5094375;28;20468;-70
2022/03/28 06:01:04;;;;;;;19.87;12.17;;;;;;;;;;5094221;28;20482;-71
2022/03/28 06:03:31;;;;;;;17.40;11.43;;;;;;;;;;5093619;28;20458;-71
2022/03/28 06:05:58;;;;;;;28.63;13.67;;;;;;;;;;5094004;28;20538;-71
2022/03/28 06:08:25;;;;;;;24.90;11.90;;;;;;;;;;5094251;28;20470;-70
2022/03/28 06:10:52;;;;;;;27.80;12.73;;;;;;;;;;5094233;28;20454;-70
2022/03/28 06:13:19;;;;;;;17.10;10.57;;;;;;;;;;5090357;28;20448;-70
2022/03/28 06:15:49;;;;;;;24.43;15.03;;;;;;;;;;5083513;28;20446;-71
2022/03/28 06:18:17;;;;;;;22.83;10.10;;;;;;;;;;5084562;28;20468;-70
2022/03/28 06:20:44;;;;;;;20.10;11.37;;;;;;;;;;5075691;28;21131;-70
2022/03/28 06:23:12;;;;;;;23.67;11.57;;;;;;;;;;5081736;28;20874;-71
2022/03/28 06:25:40;;;;;;;28.33;11.60;;;;;;;;;;5080453;28;20476;-71
2022/03/28 06:28:07;;;;;;;17.60;10.80;;;;;;;;;;5081783;28;20880;-73
2022/03/28 06:30:34;;;;;;;15.43;11.83;;;;;;;;;;5088072;28;20461;-71
2022/03/28 06:33:03;;;;;;;28.53;14.83;;;;;;;;;;5092039;28;20453;-71
2022/03/28 06:35:30;;;;;;;26.73;13.80;;;;;;;;;;5091405;28;20808;-71
2022/03/28 06:37:57;;;;;;;37.40;23.10;;;;;;;;;;5091934;28;20467;-71
2022/03/28 06:40:24;;;;;;;16.70;12.80;;;;;;;;;;5090954;28;20482;-73
2022/03/28 06:42:51;;;;;;;14.70;9.90;;;;;;;;;;5091408;28;20478;-73
2022/03/28 06:45:19;;;;;;;12.07;10.23;;;;;;;;;;5091783;28;20457;-73
2022/03/28 06:47:50;;;;;;;14.43;10.40;;;;;;;;;;5091721;28;20470;-74
2022/03/28 06:50:19;;;;;;;11.30;9.50;;;;;;;;;;5091383;28;20526;-73
2022/03/28 06:52:47;;;;;;;12.83;9.23;;;;;;;;;;5091894;28;20486;-73
2022/03/28 06:55:14;;;;;;;14.40;12.00;;;;;;;;;;5091451;28;20462;-73
2022/03/28 06:57:42;;;;;;;12.00;10.00;;;;;;;;;;5091453;28;20471;-74
2022/03/28 07:00:10;;;;;;;12.63;10.60;;;;;;;;;;5091761;28;20497;-73
2022/03/28 07:02:37;;;;;;;11.30;8.90;;;;;;;;;;5085574;28;20936;-74
2022/03/28 07:05:05;;;;;;;10.63;9.53;;;;;;;;;;5083011;28;20526;-73
2022/03/28 07:07:40;;;;;;;16.03;9.73;;;;;;;;;;5080772;28;20889;-73
2022/03/28 07:10:08;;;;;;;12.07;9.20;;;;;;;;;;5072902;28;20482;-73
2022/03/28 07:12:35;;;;;;;12.30;10.10;;;;;;;;;;5072931;28;20870;-73
2022/03/28 07:15:02;;;;;;;12.07;9.70;;;;;;;;;;5072296;28;20462;-73
2022/03/28 07:17:29;;;;;;;9.73;8.67;;;;;;;;;;5072320;28;20479;-73
2022/03/28 07:19:56;;;;;;;11.60;9.80;;;;;;;;;;5080899;28;20478;-74
2022/03/28 07:22:24;;;;;;;12.00;9.50;;;;;;;;;;5092937;28;20948;-74
2022/03/28 07:24:52;;;;;;;11.10;9.20;;;;;;;;;;5082943;28;20489;-74
2022/03/28 07:27:19;;;;;;;15.83;12.50;;;;;;;;;;5082407;28;20455;-74
2022/03/28 07:29:46;;;;;;;12.70;9.70;;;;;;;;;;5081398;28;20460;-74
2022/03/28 07:32:13;;;;;;;12.43;9.43;;;;;;;;;;5082882;28;20942;-74
2022/03/28 07:34:40;;;;;;;14.87;9.00;;;;;;;;;;5082076;28;20456;-74
2022/03/28 07:37:09;;;;;;;11.43;10.23;;;;;;;;;;5089975;28;20826;-73
2022/03/28 07:39:38;;;;;;;9.03;7.70;;;;;;;;;;5092699;28;20822;-72
2022/03/28 07:42:07;;;;;;;17.70;9.83;;;;;;;;;;5090302;28;20951;-72
2022/03/28 07:44:35;;;;;;;12.87;7.97;;;;;;;;;;5092478;28;20454;-72
2022/03/28 07:47:03;;;;;;;13.67;8.70;;;;;;;;;;5092653;28;20447;-72
2022/03/28 07:49:31;;;;;;;9.83;8.83;;;;;;;;;;5092720;28;20477;-72
2022/03/28 07:51:59;;;;;;;10.40;9.30;;;;;;;;;;5092529;28;20450;-72
2022/03/28 07:54:26;;;;;;;9.77;8.60;;;;;;;;;;5092100;28;20500;-73
2022/03/28 07:56:53;;;;;;;11.98;9.80;;;;;;;;;;5082494;28;20448;-72
2022/03/28 07:59:23;;;;;;;12.10;10.80;;;;;;;;;;5082054;28;20221;-72
2022/03/28 08:01:51;;;;;;;8.80;7.90;;;;;;;;;;5077428;28;20575;-73
2022/03/28 08:04:18;;;;;;;10.97;8.67;;;;;;;;;;5071500;28;20459;-72
2022/03/28 08:06:45;;;;;;;18.50;8.80;;;;;;;;;;5072331;28;20455;-72
2022/03/28 08:09:12;;;;;;;14.30;8.97;;;;;;;;;;5068037;28;20499;-72
2022/03/28 08:11:42;;;;;;;12.00;8.80;;;;;;;;;;5070959;28;20452;-72
2022/03/28 08:14:09;;;;;;;17.27;10.10;;;;;;;;;;5069980;28;20459;-72
2022/03/28 08:16:37;;;;;;;9.97;8.37;;;;;;;;;;5070345;28;20448;-72
2022/03/28 08:19:05;;;;;;;12.73;8.87;;;;;;;;;;5069247;28;20491;-73
2022/03/28 08:21:32;;;;;;;10.00;8.60;;;;;;;;;;5070067;28;20488;-72
2022/03/28 08:23:59;;;;;;;16.33;8.67;;;;;;;;;;5068828;28;20488;-72
2022/03/28 08:26:26;;;;;;;26.37;9.13;;;;;;;;;;5070943;28;20948;-73
2022/03/28 08:28:54;;;;;;;11.93;9.63;;;;;;;;;;5071949;28;20529;-72
2022/03/28 08:31:21;;;;;;;19.17;9.60;;;;;;;;;;5074693;28;20443;-72
2022/03/28 08:33:50;;;;;;;12.17;8.87;;;;;;;;;;5072887;28;20944;-72
2022/03/28 08:36:17;;;;;;;21.73;10.50;;;;;;;;;;5074739;28;20487;-72
2022/03/28 08:38:44;;;;;;;19.67;10.30;;;;;;;;;;5072919;28;20479;-72
2022/03/28 08:41:14;;;;;;;13.00;9.17;;;;;;;;;;5072658;28;20849;-72
2022/03/28 08:43:42;;;;;;;10.57;9.40;;;;;;;;;;5072814;28;20463;-73
2022/03/28 08:46:10;;;;;;;12.20;8.90;;;;;;;;;;5093198;28;20447;-72
2022/03/28 08:48:40;;;;;;;15.00;11.57;;;;;;;;;;5094108;28;20898;-73
2022/03/28 08:51:09;;;;;;;13.70;10.37;;;;;;;;;;5093292;28;20964;-73
2022/03/28 08:53:37;;;;;;;14.10;10.80;;;;;;;;;;5092167;28;20796;-72
2022/03/28 08:56:05;;;;;;;11.20;9.80;;;;;;;;;;5094081;28;20450;-72
2022/03/28 08:58:32;;;;;;;14.97;9.40;;;;;;;;;;5093466;28;20475;-73
2022/03/28 09:00:59;;;;;;;13.40;10.00;;;;;;;;;;5093827;28;20490;-73
2022/03/28 09:03:36;;;;;;;15.10;11.07;;;;;;;;;;5094279;28;20923;-72
2022/03/28 09:06:25;;;;;;;12.40;9.80;;;;;;;;;;5093546;28;20446;-75
2022/03/28 09:08:53;;;;;;;13.37;10.10;;;;;;;;;;5093696;28;20474;-73
2022/03/28 09:11:21;;;;;;;12.80;9.60;;;;;;;;;;5093532;28;20442;-72
2022/03/28 09:13:48;;;;;;;12.93;10.03;;;;;;;;;;5092706;28;20490;-73
2022/03/28 09:16:19;;;;;;;15.00;10.37;;;;;;;;;;5093706;28;20478;-72
2022/03/28 09:18:46;;;;;;;10.43;9.33;;;;;;;;;;5092644;28;20467;-73
2022/03/28 09:21:14;;;;;;;14.67;10.93;;;;;;;;;;5093081;28;20487;-73
2022/03/28 09:23:44;;;;;;;13.40;9.97;;;;;;;;;;5093136;28;20473;-73
2022/03/28 09:26:16;;;;;;;11.50;9.93;;;;;;;;;;5093692;28;20455;-72
2022/03/28 09:28:48;;;;;;;11.57;10.43;;;;;;;;;;5093077;28;20506;-72
2022/03/28 09:31:23;;;;;;;14.93;10.37;;;;;;;;;;5093302;28;20558;-72
2022/03/28 09:33:53;;;;;;;15.60;9.60;;;;;;;;;;5092742;28;20461;-72
2022/03/28 09:36:34;;;;;;;13.67;10.17;;;;;;;;;;5093355;28;20455;-72
2022/03/28 09:39:01;;;;;;;12.60;9.60;;;;;;;;;;5092190;28;20483;-73
2022/03/28 09:41:30;;;;;;;15.10;10.20;;;;;;;;;;5092640;28;20494;-73
2022/03/28 09:43:57;;;;;;;13.50;11.90;;;;;;;;;;5092201;28;20462;-73
2022/03/28 09:46:28;;;;;;;11.10;10.00;;;;;;;;;;5092619;28;20450;-73
2022/03/28 09:48:57;;;;;;;13.00;10.40;;;;;;;;;;5094468;28;20601;-73
2022/03/28 09:51:26;;;;;;;12.40;10.97;;;;;;;;;;5094630;28;20447;-73
2022/03/28 09:53:54;;;;;;;12.97;11.20;;;;;;;;;;5092466;28;20450;-72
2022/03/28 09:56:21;;;;;;;16.67;10.20;;;;;;;;;;5094565;28;20979;-73
2022/03/28 09:58:56;;;;;;;15.20;12.70;;;;;;;;;;5094354;28;20475;-72
2022/03/28 10:01:25;;;;;;;16.13;11.73;;;;;;;;;;5094466;28;20584;-73
2022/03/28 10:03:53;;;;;;;14.37;11.10;;;;;;;;;;5093868;28;20457;-73
2022/03/28 10:06:21;;;;;;;15.40;11.80;;;;;;;;;;5094470;28;20482;-73
2022/03/28 10:08:49;;;;;;;22.27;13.10;;;;;;;;;;5094169;28;20844;-73
2022/03/28 10:11:17;;;;;;;16.60;11.00;;;;;;;;;;5094220;28;20488;-73
2022/03/28 10:13:44;;;;;;;16.63;11.93;;;;;;;;;;5093839;28;20461;-74
2022/03/28 10:16:12;;;;;;;17.60;11.77;;;;;;;;;;5081863;28;20819;-73
2022/03/28 10:18:41;;;;;;;13.23;10.87;;;;;;;;;;5072776;28;20468;-73
2022/03/28 10:21:10;;;;;;;14.93;12.30;;;;;;;;;;5073601;28;21008;-73
2022/03/28 10:23:43;;;;;;;16.20;11.80;;;;;;;;;;5073208;28;20481;-73
2022/03/28 10:26:10;;;;;;;13.03;11.60;;;;;;;;;;5073769;28;20924;-73
2022/03/28 10:28:38;;;;;;;16.90;12.40;;;;;;;;;;5073491;28;20472;-73
2022/03/28 10:31:18;;;;;;;14.57;11.10;;;;;;;;;;5073464;28;20452;-73
2022/03/28 10:33:48;;;;;;;13.73;11.00;;;;;;;;;;5073155;28;20509;-73
2022/03/28 10:36:23;;;;;;;18.90;11.90;;;;;;;;;;5073598;28;20456;-73
2022/03/28 10:38:51;;;;;;;17.30;10.80;;;;;;;;;;5073414;28;20480;-73
2022/03/28 10:41:19;;;;;;;15.87;11.53;;;;;;;;;;5073166;28;20523;-73
2022/03/28 10:43:46;;;;;;;18.80;11.47;;;;;;;;;;5072795;28;20505;-73
2022/03/28 10:46:14;;;;;;;15.70;12.13;;;;;;;;;;5073230;28;20479;-73
2022/03/28 10:48:44;;;;;;;13.57;12.00;;;;;;;;;;5073247;28;20479;-73
2022/03/28 10:51:12;;;;;;;19.60;13.17;;;;;;;;;;5073501;28;20933;-73
2022/03/28 10:53:40;;;;;;;14.67;12.33;;;;;;;;;;5070150;28;20444;-73
2022/03/28 10:56:09;;;;;;;20.50;12.13;;;;;;;;;;5073164;28;20455;-73
2022/03/28 10:58:38;;;;;;;17.70;14.07;;;;;;;;;;5073015;28;20467;-73
2022/03/28 11:01:24;;;;;;;13.30;11.07;;;;;;;;;;5072889;28;20483;-73
2022/03/28 11:03:57;;;;;;;14.90;12.27;;;;;;;;;;5072511;28;20455;-73
2022/03/28 11:06:39;;;;;;;13.17;11.77;;;;;;;;;;5073087;28;20566;-73
2022/03/28 11:09:06;;;;;;;17.33;11.27;;;;;;;;;;5072654;28;20509;-74
2022/03/28 11:11:33;;;;;;;17.60;12.80;;;;;;;;;;5072806;28;20459;-73
2022/03/28 11:14:04;;;;;;;17.20;12.47;;;;;;;;;;5072373;28;20452;-73
2022/03/28 11:16:45;;;;;;;25.70;13.10;;;;;;;;;;5072895;28;20475;-74
2022/03/28 11:19:24;;;;;;;16.23;12.10;;;;;;;;;;5071684;28;20467;-73
2022/03/28 11:22:01;;;;;;;17.27;14.50;;;;;;;;;;5072530;28;20597;-74
2022/03/28 11:24:48;;;;;;;16.67;13.00;;;;;;;;;;5072304;28;20462;-73
2022/03/28 11:27:15;;;;;;;16.00;11.83;;;;;;;;;;5072470;28;20458;-74
2022/03/28 11:29:43;;;;;;;21.30;13.87;;;;;;;;;;5072666;28;20460;-73
2022/03/28 11:32:11;;;;;;;18.23;13.20;;;;;;;;;;5072484;28;20444;-74
2022/03/28 11:34:39;;;;;;;21.07;13.10;;;;;;;;;;5072151;28;20462;-73
2022/03/28 11:37:07;;;;;;;20.13;12.70;;;;;;;;;;5072547;28;20459;-74
2022/03/28 11:39:49;;;;;;;15.67;12.27;;;;;;;;;;5072399;28;20492;-73
2022/03/28 11:42:16;;;;;;;20.40;13.67;;;;;;;;;;5072381;28;20491;-74
2022/03/28 11:44:43;;;;;;;19.80;14.07;;;;;;;;;;5072098;28;20455;-74
2022/03/28 11:47:10;;;;;;;19.87;14.70;;;;;;;;;;5072416;28;20455;-74
2022/03/28 11:49:51;;;;;;;21.13;13.70;;;;;;;;;;5072454;28;20456;-74
2022/03/28 11:52:20;;;;;;;29.17;13.80;;;;;;;;;;5070854;28;20450;-73
2022/03/28 11:54:47;;;;;;;19.87;14.17;;;;;;;;;;5071943;28;20451;-73
2022/03/28 12:00:12;;;;;;;18.53;13.27;;;;;;;;;;5072444;28;20427;-75
2022/03/28 12:02:46;;;;;;;16.70;13.40;;;;;;;;;;5072332;28;20527;-73
2022/03/28 12:05:24;;;;;;;16.37;13.13;;;;;;;;;;5075355;28;20447;-75
2022/03/28 12:07:51;;;;;;;17.73;14.17;;;;;;;;;;5076237;28;21004;-74
2022/03/28 12:10:18;;;;;;;21.60;15.07;;;;;;;;;;5076257;28;20486;-73
2022/03/28 12:12:45;;;;;;;20.57;13.30;;;;;;;;;;5076259;28;20488;-73
2022/03/28 12:15:13;;;;;;;18.40;15.17;;;;;;;;;;5075771;28;20459;-73
2022/03/28 12:17:40;;;;;;;22.20;14.13;;;;;;;;;;5076268;28;21017;-74
2022/03/28 12:20:08;;;;;;;18.83;13.27;;;;;;;;;;5075100;28;20463;-74
2022/03/28 12:22:46;;;;;;;21.60;14.83;;;;;;;;;;5076019;28;21012;-73
2022/03/28 12:25:23;;;;;;;22.60;14.03;;;;;;;;;;5075467;28;20459;-74
2022/03/28 12:27:52;;;;;;;17.50;14.30;;;;;;;;;;5075913;28;20467;-74
2022/03/28 12:30:19;;;;;;;17.77;13.60;;;;;;;;;;5075972;28;20493;-74
2022/03/28 12:32:46;;;;;;;16.63;13.43;;;;;;;;;;5075822;28;20452;-74
2022/03/28 12:35:13;;;;;;;18.13;12.60;;;;;;;;;;5075515;28;20838;-74
2022/03/28 12:37:40;;;;;;;21.00;17.70;;;;;;;;;;5075695;28;20475;-74
2022/03/28 12:40:09;;;;;;;19.93;14.73;;;;;;;;;;5075495;28;20466;-74
2022/03/28 12:42:37;;;;;;;79.73;72.37;;;;;;;;;;5075688;28;20492;-73
2022/03/28 12:45:04;;;;;;;24.17;18.30;;;;;;;;;;5075107;28;20451;-73
2022/03/28 12:47:31;;;;;;;20.50;13.77;;;;;;;;;;5075650;28;20472;-73
2022/03/28 12:49:58;;;;;;;17.97;13.03;;;;;;;;;;5075486;28;20452;-73
2022/03/28 12:52:31;;;;;;;20.77;13.60;;;;;;;;;;5074005;28;20459;-73
2022/03/28 12:54:58;;;;;;;20.73;13.30;;;;;;;;;;5074885;28;20479;-73
2022/03/28 12:57:28;;;;;;;22.47;13.70;;;;;;;;;;5075382;28;20804;-73
2022/03/28 12:59:55;;;;;;;21.23;14.00;;;;;;;;;;5075273;28;20567;-73
2022/03/28 13:02:22;;;;;;;18.83;12.13;;;;;;;;;;5075266;28;20491;-73
2022/03/28 13:04:50;;;;;;;24.60;14.00;;;;;;;;;;5074694;28;20966;-74
2022/03/28 13:07:19;;;;;;;22.60;14.63;;;;;;;;;;5075098;28;20825;-73
2022/03/28 13:09:54;;;;;;;15.10;11.63;;;;;;;;;;5075292;28;20554;-73
2022/03/28 13:12:21;;;;;;;16.90;12.13;;;;;;;;;;5075078;28;20455;-74
2022/03/28 13:14:50;;;;;;;20.57;14.00;;;;;;;;;;5074094;28;20459;-73
2022/03/28 13:17:17;;;;;;;18.40;12.20;;;;;;;;;;5074332;28;20459;-73
2022/03/28 13:19:56;;;;;;;20.90;13.27;;;;;;;;;;5074243;28;20956;-73
2022/03/28 13:22:27;;;;;;;20.20;12.47;;;;;;;;;;5074714;28;20499;-74
2022/03/28 13:25:07;;;;;;;34.53;13.20;;;;;;;;;;5074425;28;20968;-73
2022/03/28 13:30:21;;;;;;;18.00;12.40;;;;;;;;;;5074823;28;20431;-73
2022/03/28 13:32:49;;;;;;;16.43;11.33;;;;;;;;;;5074664;28;20514;-73
2022/03/28 13:35:17;;;;;;;15.27;10.90;;;;;;;;;;5074242;28;20455;-73
2022/03/28 13:37:53;;;;;;;23.83;12.93;;;;;;;;;;5074703;28;20472;-73
2022/03/28 13:40:21;;;;;;;17.33;12.40;;;;;;;;;;5074688;28;20945;-73
2022/03/28 13:42:48;;;;;;;18.53;12.37;;;;;;;;;;5074443;28;20498;-73
2022/03/28 13:45:15;;;;;;;24.27;13.97;;;;;;;;;;5081604;28;20534;-73
2022/03/28 13:47:44;;;;;;;18.50;12.70;;;;;;;;;;5094945;28;20467;-73
2022/03/28 13:50:11;;;;;;;17.80;12.60;;;;;;;;;;5094680;28;20458;-73
2022/03/28 13:52:38;;;;;;;44.30;24.60;;;;;;;;;;5092733;28;20451;-74
2022/03/28 13:55:05;;;;;;;25.07;14.87;;;;;;;;;;5094086;28;20446;-73
2022/03/28 13:57:33;;;;;;;17.70;12.00;;;;;;;;;;5094573;28;20845;-73
2022/03/28 14:00:00;;;;;;;23.27;12.07;;;;;;;;;;5094481;28;20447;-73
2022/03/28 14:02:27;;;;;;;25.03;12.70;;;;;;;;;;5094431;28;20878;-73
2022/03/28 14:04:55;;;;;;;19.80;12.93;;;;;;;;;;5093816;28;20455;-74
2022/03/28 14:07:22;;;;;;;17.47;12.30;;;;;;;;;;5094290;28;20932;-73
2022/03/28 14:09:49;;;;;;;26.13;12.40;;;;;;;;;;5094413;28;20458;-73
2022/03/28 14:12:17;;;;;;;16.93;10.70;;;;;;;;;;5094423;28;20811;-73
2022/03/28 14:14:44;;;;;;;20.37;11.90;;;;;;;;;;5093425;28;20466;-73
2022/03/28 14:17:11;;;;;;;17.77;12.43;;;;;;;;;;5094099;28;20824;-73
2022/03/28 14:19:38;;;;;;;17.50;12.20;;;;;;;;;;5093464;28;20462;-74
2022/03/28 14:22:07;;;;;;;21.27;11.37;;;;;;;;;;5093815;28;20498;-73
2022/03/28 14:24:34;;;;;;;18.67;11.37;;;;;;;;;;5093513;28;20463;-73
2022/03/28 14:27:01;;;;;;;15.47;11.33;;;;;;;;;;5093611;28;20466;-74
2022/03/28 14:29:29;;;;;;;15.83;11.07;;;;;;;;;;5093845;28;20532;-73
2022/03/28 14:31:56;;;;;;;17.37;11.10;;;;;;;;;;5093793;28;20497;-73
2022/03/28 14:34:25;;;;;;;19.07;11.70;;;;;;;;;;5093376;28;20486;-74